DKH1982 ZYTL-ZSPD
Flight info
| Callsign | DKH1982 |
|---|---|
| Flight time | N/A |
| Altitude | 27600 |
| Route | KAR19D KARPI W5 TAO DCT URBAD W172 LATUX W108 MATNU MAT91A |
| Aircraft | A320/M-SDE3FGHIRWY/LB1 |
Departure
| Time | 2026-04-28 13:02 |
|---|---|
| Airport | Dalian Zhoushuizi International Airport (ZYTL) |
Arrival
| Time | N/A |
|---|---|
| Airport | Shanghai Pudong International Airport (ZSPD) |
| Time | Latitude | Longitude | Altitude | Speed | Heading |
|---|---|---|---|---|---|
| 2026-04-28 13:02 | 38.96736 | 121.51682 | 1432 ft | 130 kts | 275° |
| 2026-04-28 13:02 | 38.96823 | 121.50513 | 2044 ft | 133 kts | 276° |
| 2026-04-28 13:02 | 38.96912 | 121.49321 | 2579 ft | 136 kts | 277° |
| 2026-04-28 13:03 | 38.97003 | 121.48102 | 3100 ft | 139 kts | 277° |
| 2026-04-28 13:03 | 38.97098 | 121.46823 | 3478 ft | 153 kts | 278° |
| 2026-04-28 13:03 | 38.97208 | 121.45368 | 3713 ft | 175 kts | 278° |
| 2026-04-28 13:03 | 38.97333 | 121.43713 | 3960 ft | 197 kts | 278° |
| 2026-04-28 13:04 | 38.97473 | 121.41861 | 4171 ft | 220 kts | 278° |
| 2026-04-28 13:04 | 38.97629 | 121.39810 | 4611 ft | 237 kts | 278° |
| 2026-04-28 13:04 | 38.97976 | 121.37736 | 5337 ft | 239 kts | 302° |
| 2026-04-28 13:04 | 38.99148 | 121.36305 | 6117 ft | 235 kts | 340° |
| 2026-04-28 13:05 | 39.00745 | 121.35982 | 6953 ft | 234 kts | 2° |
| 2026-04-28 13:05 | 39.02367 | 121.36180 | 7795 ft | 235 kts | 8° |
| 2026-04-28 13:05 | 39.03984 | 121.36518 | 8629 ft | 237 kts | 11° |
| 2026-04-28 13:05 | 39.05474 | 121.37420 | 9415 ft | 244 kts | 40° |
| 2026-04-28 13:06 | 39.06437 | 121.39225 | 10074 ft | 262 kts | 66° |
| 2026-04-28 13:06 | 39.06611 | 121.41656 | 10495 ft | 284 kts | 89° |
| 2026-04-28 13:06 | 39.06447 | 121.44224 | 11155 ft | 291 kts | 92° |
| 2026-04-28 13:06 | 39.06229 | 121.46830 | 11873 ft | 295 kts | 93° |
| 2026-04-28 13:07 | 39.05998 | 121.49467 | 12599 ft | 298 kts | 93° |
| 2026-04-28 13:07 | 39.05759 | 121.52134 | 13311 ft | 303 kts | 96° |
| 2026-04-28 13:07 | 39.05031 | 121.54698 | 14000 ft | 312 kts | 122° |
| 2026-04-28 13:07 | 39.04087 | 121.56105 | 14407 ft | 317 kts | 139° |
| 2026-04-28 13:08 | 39.01393 | 121.57609 | 15227 ft | 323 kts | 175° |
| 2026-04-28 13:08 | 38.99142 | 121.57496 | 15833 ft | 326 kts | 186° |
| 2026-04-28 13:08 | 38.96907 | 121.56943 | 16447 ft | 329 kts | 199° |
| 2026-04-28 13:08 | 38.94783 | 121.55774 | 16806 ft | 340 kts | 211° |
| 2026-04-28 13:09 | 38.92754 | 121.54063 | 16948 ft | 358 kts | 216° |
| 2026-04-28 13:09 | 38.90644 | 121.52227 | 17077 ft | 375 kts | 215° |
| 2026-04-28 13:09 | 38.88427 | 121.50318 | 17201 ft | 392 kts | 215° |
| 2026-04-28 13:09 | 38.86114 | 121.48341 | 17348 ft | 406 kts | 215° |
| 2026-04-28 13:10 | 38.83733 | 121.46323 | 17710 ft | 414 kts | 214° |
| 2026-04-28 13:10 | 38.81316 | 121.44286 | 18198 ft | 418 kts | 214° |
| 2026-04-28 13:10 | 38.78877 | 121.42235 | 18662 ft | 421 kts | 214° |
| 2026-04-28 13:10 | 38.76421 | 121.40172 | 19131 ft | 423 kts | 215° |
| 2026-04-28 13:11 | 38.73965 | 121.38102 | 19663 ft | 422 kts | 216° |
| 2026-04-28 13:11 | 38.71546 | 121.36063 | 20209 ft | 421 kts | 217° |
| 2026-04-28 13:11 | 38.69098 | 121.34004 | 20768 ft | 420 kts | 217° |
| 2026-04-28 13:11 | 38.66658 | 121.31953 | 21318 ft | 419 kts | 218° |
| 2026-04-28 13:12 | 38.64225 | 121.29904 | 21879 ft | 418 kts | 219° |
| 2026-04-28 13:12 | 38.61802 | 121.27857 | 22403 ft | 417 kts | 219° |
| 2026-04-28 13:12 | 38.59384 | 121.25813 | 22919 ft | 416 kts | 220° |
| 2026-04-28 13:12 | 38.56976 | 121.23777 | 23473 ft | 413 kts | 221° |
| 2026-04-28 13:13 | 38.54731 | 121.21560 | 23951 ft | 403 kts | 230° |
| 2026-04-28 13:13 | 38.52848 | 121.18967 | 24373 ft | 394 kts | 239° |
| 2026-04-28 13:13 | 38.51216 | 121.16174 | 24776 ft | 392 kts | 240° |
| 2026-04-28 13:13 | 38.49594 | 121.13393 | 25166 ft | 391 kts | 240° |
| 2026-04-28 13:14 | 38.47966 | 121.10616 | 25536 ft | 390 kts | 240° |
| 2026-04-28 13:14 | 38.46340 | 121.07854 | 25891 ft | 389 kts | 240° |
| 2026-04-28 13:14 | 38.44717 | 121.05095 | 26258 ft | 388 kts | 240° |
| 2026-04-28 13:14 | 38.43100 | 121.02345 | 26617 ft | 386 kts | 240° |
| 2026-04-28 13:15 | 38.41492 | 120.99615 | 27034 ft | 384 kts | 240° |
| 2026-04-28 13:15 | 38.39892 | 120.96896 | 27392 ft | 383 kts | 240° |
| 2026-04-28 13:15 | 38.38299 | 120.94193 | 27760 ft | 381 kts | 240° |
| 2026-04-28 13:15 | 38.36713 | 120.91507 | 27835 ft | 378 kts | 240° |
| 2026-04-28 13:16 | 38.35131 | 120.88832 | 27850 ft | 377 kts | 240° |
| 2026-04-28 13:16 | 38.33553 | 120.86166 | 27845 ft | 377 kts | 240° |
| 2026-04-28 13:16 | 38.31977 | 120.83503 | 27850 ft | 376 kts | 240° |
| 2026-04-28 13:16 | 38.30402 | 120.80840 | 27823 ft | 376 kts | 240° |
| 2026-04-28 13:17 | 38.28826 | 120.78182 | 27848 ft | 376 kts | 240° |
| 2026-04-28 13:17 | 38.27251 | 120.75528 | 27847 ft | 376 kts | 240° |
| 2026-04-28 13:17 | 38.25562 | 120.73019 | 27853 ft | 384 kts | 233° |
| 2026-04-28 13:17 | 38.23445 | 120.70870 | 27852 ft | 397 kts | 223° |
| 2026-04-28 13:18 | 38.20969 | 120.69191 | 27848 ft | 407 kts | 218° |
| 2026-04-28 13:18 | 38.18426 | 120.67616 | 27846 ft | 407 kts | 218° |
| 2026-04-28 13:18 | 38.15882 | 120.66039 | 27846 ft | 407 kts | 218° |
| 2026-04-28 13:18 | 38.13342 | 120.64466 | 27826 ft | 406 kts | 218° |
| 2026-04-28 13:19 | 38.10802 | 120.62891 | 27833 ft | 406 kts | 218° |
| 2026-04-28 13:19 | 38.08264 | 120.61314 | 27838 ft | 406 kts | 218° |
| 2026-04-28 13:19 | 38.06585 | 120.60272 | 27842 ft | 406 kts | 218° |
| 2026-04-28 13:19 | 38.04042 | 120.58715 | 27848 ft | 408 kts | 215° |
| 2026-04-28 13:20 | 38.01308 | 120.57524 | 27844 ft | 424 kts | 206° |
| 2026-04-28 13:20 | 37.98338 | 120.56938 | 27847 ft | 441 kts | 197° |
| 2026-04-28 13:20 | 37.95269 | 120.56712 | 27815 ft | 442 kts | 196° |
| 2026-04-28 13:20 | 37.92199 | 120.56491 | 27819 ft | 441 kts | 196° |
| 2026-04-28 13:21 | 37.89136 | 120.56268 | 27818 ft | 441 kts | 197° |
| 2026-04-28 13:21 | 37.86074 | 120.56044 | 27825 ft | 440 kts | 197° |
| 2026-04-28 13:21 | 37.83014 | 120.55820 | 27834 ft | 440 kts | 197° |
| 2026-04-28 13:21 | 37.79958 | 120.55593 | 27836 ft | 440 kts | 197° |
| 2026-04-28 13:22 | 37.76905 | 120.55362 | 27782 ft | 439 kts | 196° |
| 2026-04-28 13:22 | 37.73864 | 120.55133 | 27839 ft | 438 kts | 196° |
| 2026-04-28 13:22 | 37.70824 | 120.54906 | 27847 ft | 437 kts | 196° |
| 2026-04-28 13:22 | 37.67795 | 120.54679 | 27852 ft | 436 kts | 196° |
| 2026-04-28 13:23 | 37.64769 | 120.54439 | 27851 ft | 434 kts | 197° |
| 2026-04-28 13:23 | 37.61773 | 120.54099 | 27850 ft | 431 kts | 199° |
| 2026-04-28 13:23 | 37.58805 | 120.53665 | 27849 ft | 428 kts | 200° |
| 2026-04-28 13:23 | 37.55854 | 120.53177 | 27818 ft | 427 kts | 200° |
| 2026-04-28 13:24 | 37.52912 | 120.52673 | 27825 ft | 427 kts | 200° |
| 2026-04-28 13:24 | 37.49968 | 120.52180 | 27826 ft | 427 kts | 200° |
| 2026-04-28 13:24 | 37.47021 | 120.51711 | 27825 ft | 427 kts | 199° |
| 2026-04-28 13:24 | 37.44067 | 120.51262 | 27825 ft | 428 kts | 199° |
| 2026-04-28 13:25 | 37.41111 | 120.50826 | 27825 ft | 428 kts | 199° |
| 2026-04-28 13:25 | 37.38195 | 120.50402 | 27825 ft | 428 kts | 199° |
| 2026-04-28 13:25 | 37.35238 | 120.49968 | 27815 ft | 429 kts | 199° |
| 2026-04-28 13:25 | 37.32272 | 120.49532 | 27817 ft | 430 kts | 199° |
| 2026-04-28 13:26 | 37.29303 | 120.49093 | 27823 ft | 430 kts | 199° |
| 2026-04-28 13:26 | 37.26333 | 120.48652 | 27825 ft | 430 kts | 199° |
| 2026-04-28 13:26 | 37.23363 | 120.48212 | 27822 ft | 430 kts | 199° |
| 2026-04-28 13:26 | 37.20395 | 120.47773 | 27824 ft | 430 kts | 199° |
| 2026-04-28 13:27 | 37.17430 | 120.47331 | 27777 ft | 429 kts | 198° |
| 2026-04-28 13:27 | 37.14461 | 120.46889 | 27784 ft | 429 kts | 198° |
| 2026-04-28 13:27 | 37.11496 | 120.46448 | 27790 ft | 429 kts | 198° |
| 2026-04-28 13:27 | 37.08528 | 120.46009 | 27797 ft | 430 kts | 198° |
| 2026-04-28 13:28 | 37.05557 | 120.45572 | 27803 ft | 430 kts | 198° |
| 2026-04-28 13:28 | 37.02586 | 120.45134 | 27811 ft | 430 kts | 198° |
| 2026-04-28 13:28 | 36.99614 | 120.44695 | 27810 ft | 430 kts | 198° |
| 2026-04-28 13:28 | 36.96645 | 120.44256 | 27806 ft | 430 kts | 198° |
| 2026-04-28 13:29 | 36.93674 | 120.43820 | 27809 ft | 430 kts | 198° |
| 2026-04-28 13:29 | 36.90703 | 120.43383 | 27807 ft | 430 kts | 198° |
| 2026-04-28 13:29 | 36.87739 | 120.42944 | 27808 ft | 429 kts | 198° |
| 2026-04-28 13:29 | 36.84771 | 120.42502 | 27804 ft | 429 kts | 198° |
| 2026-04-28 13:30 | 36.81808 | 120.42063 | 27800 ft | 429 kts | 198° |
| 2026-04-28 13:30 | 36.78842 | 120.41628 | 27808 ft | 429 kts | 198° |
| 2026-04-28 13:30 | 36.76881 | 120.41342 | 27773 ft | 429 kts | 198° |